Time;durP1;ratioP1;P1;durP2;ratioP2;P2;SDS_P1;SDS_P2;PMS_P1;PMS_P2;Temp;Humidity;BMP_temperature;BMP_pressure;BME280_temperature;BME280_humidity;BME280_pressure;Samples;Min_cycle;Max_cycle;Signal;HPM_P1;HPM_P2
2023/08/30 00:00:21;;;;;;;9.55;1.67;;;19.70;96.60;;;;;;5116113;28;20066;-78
2023/08/30 00:02:47;;;;;;;3.95;1.40;;;19.70;96.70;;;;;;5115826;28;20177;-78
2023/08/30 00:05:13;;;;;;;3.03;1.30;;;19.80;96.70;;;;;;5115522;28;20035;-78
2023/08/30 00:07:39;;;;;;;2.58;1.20;;;19.70;96.70;;;;;;5115576;28;20090;-78
2023/08/30 00:10:07;;;;;;;6.55;1.10;;;19.80;96.80;;;;;;5115506;28;20038;-78
2023/08/30 00:12:33;;;;;;;5.15;1.05;;;19.70;96.80;;;;;;5115733;28;20031;-78
2023/08/30 00:14:59;;;;;;;4.75;1.23;;;19.70;96.80;;;;;;5115627;28;20027;-78
2023/08/30 00:17:24;;;;;;;9.10;1.10;;;19.80;96.80;;;;;;5115775;28;20509;-78
2023/08/30 00:19:52;;;;;;;2.55;1.08;;;19.70;96.80;;;;;;5115371;28;20031;-78
2023/08/30 00:22:18;;;;;;;2.90;1.00;;;19.80;96.90;;;;;;5115323;28;20036;-77
2023/08/30 00:24:45;;;;;;;8.88;1.05;;;19.80;96.90;;;;;;5115469;28;20035;-77
2023/08/30 00:27:12;;;;;;;2.38;1.00;;;19.80;96.90;;;;;;5115476;28;20028;-78
2023/08/30 00:29:37;;;;;;;1.50;0.90;;;19.70;96.90;;;;;;5115494;28;20093;-78
2023/08/30 00:32:03;;;;;;;1.48;0.90;;;19.70;97.00;;;;;;5115459;28;20032;-78
2023/08/30 00:34:29;;;;;;;4.35;1.05;;;19.70;97.00;;;;;;5115169;28;20024;-78
2023/08/30 00:36:55;;;;;;;2.13;1.00;;;19.80;97.00;;;;;;5097048;28;20039;-78
2023/08/30 00:39:21;;;;;;;4.60;1.10;;;19.70;97.00;;;;;;5114714;28;20054;-78
2023/08/30 00:41:46;;;;;;;3.40;1.13;;;19.70;97.00;;;;;;5114353;28;20032;-77
2023/08/30 00:44:12;;;;;;;6.40;0.95;;;19.80;97.00;;;;;;5094692;28;20046;-78
2023/08/30 00:46:38;;;;;;;5.80;0.90;;;19.80;97.00;;;;;;5094677;28;20032;-77
2023/08/30 00:49:04;;;;;;;5.00;1.10;;;19.70;96.90;;;;;;5094599;28;20032;-77
2023/08/30 00:51:31;;;;;;;11.32;1.10;;;19.70;97.00;;;;;;5094787;28;20502;-75
2023/08/30 00:53:58;;;;;;;5.60;0.88;;;19.70;96.90;;;;;;5094102;28;20036;-77
2023/08/30 00:56:25;;;;;;;3.40;1.17;;;19.80;97.00;;;;;;5094191;28;20028;-78
2023/08/30 00:58:51;;;;;;;2.05;0.90;;;19.70;97.00;;;;;;5092283;28;20035;-78
2023/08/30 01:01:18;;;;;;;1.67;0.82;;;19.80;97.00;;;;;;5084198;28;20040;-77
2023/08/30 01:03:44;;;;;;;5.68;1.38;;;19.70;97.00;;;;;;5091574;28;20044;-77
2023/08/30 01:06:09;;;;;;;4.60;1.33;;;19.80;97.10;;;;;;5094036;28;20379;-77
2023/08/30 01:08:37;;;;;;;4.25;1.50;;;19.80;97.10;;;;;;5094126;28;20020;-77
2023/08/30 01:11:16;;;;;;;11.10;1.95;;;19.70;96.90;;;;;;5094363;28;20085;-77
2023/08/30 01:13:52;;;;;;;2.17;1.30;;;19.80;96.90;;;;;;5093719;28;20036;-77
2023/08/30 01:16:21;;;;;;;6.40;1.60;;;19.70;96.80;;;;;;5093918;28;20033;-76
2023/08/30 01:18:48;;;;;;;4.85;1.58;;;19.70;96.80;;;;;;5093703;28;20028;-78
2023/08/30 01:21:26;;;;;;;4.03;1.13;;;19.70;96.80;;;;;;5093440;28;20479;-77
2023/08/30 01:24:02;;;;;;;4.07;1.40;;;19.70;96.90;;;;;;5093565;28;20047;-77
2023/08/30 01:27:08;;;;;;;7.80;1.23;;;19.70;96.80;;;;;;5093676;28;20522;-77
2023/08/30 01:29:36;;;;;;;2.78;1.00;;;19.70;96.80;;;;;;5092121;28;20036;-77
2023/08/30 01:32:02;;;;;;;2.70;1.25;;;19.70;96.90;;;;;;5093660;28;20028;-77
2023/08/30 01:34:29;;;;;;;7.75;1.40;;;19.70;96.90;;;;;;5093455;28;20044;-77
2023/08/30 01:36:55;;;;;;;2.92;0.82;;;19.60;96.80;;;;;;5093294;28;20081;-77
2023/08/30 01:39:22;;;;;;;1.42;0.65;;;19.70;96.80;;;;;;5093213;28;20083;-77
2023/08/30 01:41:48;;;;;;;5.20;0.90;;;19.70;96.80;;;;;;5093388;28;20107;-77
2023/08/30 01:44:16;;;;;;;4.90;1.13;;;19.60;96.80;;;;;;5093225;28;20079;-78
2023/08/30 01:46:45;;;;;;;2.63;0.70;;;19.60;96.70;;;;;;5093277;28;20031;-77
2023/08/30 01:49:12;;;;;;;3.25;0.95;;;19.60;96.70;;;;;;5093685;28;20040;-78
2023/08/30 01:51:39;;;;;;;4.25;1.05;;;19.50;96.60;;;;;;5093388;28;20489;-78
2023/08/30 01:54:06;;;;;;;6.63;1.30;;;19.50;96.60;;;;;;5093278;28;20036;-77
2023/08/30 01:56:32;;;;;;;8.80;1.10;;;19.50;96.70;;;;;;5093336;28;20035;-77
2023/08/30 01:58:58;;;;;;;3.00;1.10;;;19.50;96.80;;;;;;5093610;28;20036;-77
2023/08/30 02:01:24;;;;;;;7.50;0.85;;;19.50;97.10;;;;;;5093355;28;20082;-78
2023/08/30 02:03:50;;;;;;;4.45;0.80;;;19.50;96.60;;;;;;5093258;28;20181;-77
2023/08/30 02:06:26;;;;;;;4.43;0.88;;;19.50;96.40;;;;;;5091692;28;20032;-77
2023/08/30 02:09:03;;;;;;;6.43;0.90;;;19.40;96.70;;;;;;5091671;28;20028;-77
2023/08/30 02:11:32;;;;;;;4.07;0.82;;;19.50;96.50;;;;;;5093053;28;20067;-78
2023/08/30 02:14:00;;;;;;;5.50;0.70;;;19.40;96.50;;;;;;5093213;28;20427;-78
2023/08/30 02:16:27;;;;;;;7.55;0.93;;;19.50;96.50;;;;;;5093042;28;20036;-77
2023/08/30 02:18:53;;;;;;;6.18;0.90;;;19.40;96.50;;;;;;5092973;28;20563;-77
2023/08/30 02:21:19;;;;;;;3.05;0.63;;;19.40;96.50;;;;;;5093115;28;20066;-77
2023/08/30 02:23:50;;;;;;;2.33;0.73;;;19.40;96.40;;;;;;5092989;28;20055;-77
2023/08/30 02:26:21;;;;;;;4.97;1.42;;;19.40;96.50;;;;;;5092730;28;20028;-78
2023/08/30 02:28:47;;;;;;;3.13;0.70;;;19.40;96.60;;;;;;5093057;28;20074;-77
2023/08/30 02:31:12;;;;;;;2.60;0.63;;;19.40;96.60;;;;;;5092802;28;20070;-77
2023/08/30 02:33:38;;;;;;;5.63;1.00;;;19.40;96.60;;;;;;5091343;28;20043;-77
2023/08/30 02:36:04;;;;;;;6.82;1.23;;;19.40;96.60;;;;;;5093090;28;20028;-77
2023/08/30 02:38:30;;;;;;;3.85;1.10;;;19.40;96.70;;;;;;5092677;28;20101;-77
2023/08/30 02:40:56;;;;;;;4.72;0.73;;;19.40;96.70;;;;;;5092490;28;20076;-77
2023/08/30 02:43:22;;;;;;;6.75;0.70;;;19.50;96.50;;;;;;5092411;28;20051;-76
2023/08/30 02:45:48;;;;;;;7.20;0.73;;;19.50;96.40;;;;;;5092518;28;20040;-78
2023/08/30 02:48:15;;;;;;;3.22;0.68;;;19.50;96.40;;;;;;5092342;28;20126;-78
2023/08/30 02:50:41;;;;;;;5.07;0.85;;;19.40;96.50;;;;;;5092827;28;20028;-77
2023/08/30 02:53:09;;;;;;;7.10;0.88;;;19.40;96.50;;;;;;5091096;28;20036;-77
2023/08/30 02:55:35;;;;;;;3.85;0.80;;;19.40;96.60;;;;;;5092887;28;20492;-77
2023/08/30 02:58:01;;;;;;;8.38;1.10;;;19.40;96.70;;;;;;5084473;28;20055;-77
2023/08/30 03:00:27;;;;;;;3.03;0.70;;;19.40;96.80;;;;;;5092273;28;20472;-77
2023/08/30 03:02:52;;;;;;;2.60;0.55;;;19.40;96.90;;;;;;5091303;28;20044;-77
2023/08/30 03:05:19;;;;;;;4.38;0.50;;;19.40;96.90;;;;;;5096412;28;20070;-77
2023/08/30 03:07:44;;;;;;;1.58;0.30;;;19.40;96.60;;;;;;5096352;28;20547;-77
2023/08/30 03:10:12;;;;;;;3.00;0.32;;;19.40;96.50;;;;;;5096334;28;20032;-77
2023/08/30 03:12:38;;;;;;;2.70;0.55;;;19.40;96.40;;;;;;5096496;28;20056;-78
2023/08/30 03:15:04;;;;;;;3.88;0.55;;;19.40;96.40;;;;;;5096285;28;20040;-77
2023/08/30 03:17:30;;;;;;;4.20;0.50;;;19.30;96.20;;;;;;5096292;28;20032;-76
2023/08/30 03:19:56;;;;;;;4.03;0.40;;;19.30;96.20;;;;;;5094794;28;20032;-77
2023/08/30 03:22:22;;;;;;;3.13;0.40;;;19.30;96.20;;;;;;5094883;28;20047;-77
2023/08/30 03:24:49;;;;;;;0.90;0.30;;;19.20;96.20;;;;;;5096230;28;20028;-77
2023/08/30 03:27:16;;;;;;;3.05;0.40;;;19.20;96.20;;;;;;5095914;28;20062;-77
2023/08/30 03:29:41;;;;;;;4.60;0.50;;;19.20;96.20;;;;;;5095827;28;20058;-77
2023/08/30 03:32:07;;;;;;;1.13;0.30;;;19.20;96.20;;;;;;5095706;28;20040;-77
2023/08/30 03:34:33;;;;;;;3.20;0.32;;;19.20;96.10;;;;;;5095889;28;20028;-77
2023/08/30 03:36:58;;;;;;;2.15;0.20;;;19.20;96.10;;;;;;5095813;28;20101;-77
2023/08/30 03:39:24;;;;;;;1.45;0.25;;;19.20;96.00;;;;;;5087130;28;20050;-77
2023/08/30 03:41:50;;;;;;;3.75;0.40;;;19.20;95.90;;;;;;5075403;28;20115;-77
2023/08/30 03:44:16;;;;;;;2.53;0.30;;;19.20;95.80;;;;;;5075516;28;20400;-77
2023/08/30 03:46:42;;;;;;;1.92;0.30;;;19.20;95.80;;;;;;5075407;28;20037;-77
2023/08/30 03:49:08;;;;;;;2.88;0.55;;;19.10;95.70;;;;;;5089145;28;20063;-78
2023/08/30 03:51:34;;;;;;;3.95;0.32;;;19.10;95.70;;;;;;5095669;28;20040;-80
2023/08/30 03:54:00;;;;;;;1.30;0.35;;;19.10;95.80;;;;;;5095802;28;20090;-78
2023/08/30 03:56:25;;;;;;;5.47;0.30;;;19.10;95.90;;;;;;5095790;28;20114;-78
2023/08/30 03:58:51;;;;;;;0.25;0.25;;;19.10;95.90;;;;;;5096223;28;20112;-77
2023/08/30 04:01:17;;;;;;;2.03;0.38;;;19.10;96.00;;;;;;5095268;28;20040;-77
2023/08/30 04:03:43;;;;;;;2.80;0.40;;;19.10;96.00;;;;;;5095164;28;20078;-77
2023/08/30 04:06:08;;;;;;;3.63;0.30;;;19.10;96.10;;;;;;5095797;28;20032;-77
2023/08/30 04:08:34;;;;;;;2.45;0.40;;;19.10;96.10;;;;;;5095288;28;20391;-78
2023/08/30 04:11:02;;;;;;;6.25;0.60;;;19.10;96.10;;;;;;5095385;28;20032;-78
2023/08/30 04:13:27;;;;;;;0.93;0.32;;;19.10;96.10;;;;;;5095328;28;20032;-78
2023/08/30 04:15:53;;;;;;;5.57;0.30;;;19.00;96.10;;;;;;5094260;28;20050;-77
2023/08/30 04:18:19;;;;;;;3.10;0.40;;;19.10;96.10;;;;;;5095543;28;20392;-77
2023/08/30 04:20:46;;;;;;;3.90;0.70;;;19.10;96.20;;;;;;5095413;28;20585;-77
2023/08/30 04:23:12;;;;;;;2.30;0.30;;;19.00;96.20;;;;;;5095209;28;20040;-78
2023/08/30 04:25:38;;;;;;;3.17;0.60;;;19.00;96.20;;;;;;5095562;28;20123;-78
2023/08/30 04:28:04;;;;;;;0.63;0.30;;;19.10;96.20;;;;;;5095245;28;20452;-78
2023/08/30 04:30:30;;;;;;;2.00;0.35;;;19.10;96.20;;;;;;5095100;28;20024;-77
2023/08/30 04:32:57;;;;;;;0.73;0.40;;;19.10;96.20;;;;;;5091804;28;20107;-77
2023/08/30 04:35:22;;;;;;;0.50;0.40;;;19.00;96.10;;;;;;5094486;28;20036;-78
2023/08/30 04:37:48;;;;;;;4.78;0.38;;;19.10;96.10;;;;;;5095107;28;20078;-78
2023/08/30 04:40:14;;;;;;;5.15;0.93;;;19.00;96.10;;;;;;5122582;27;20043;-77
2023/08/30 04:42:40;;;;;;;0.93;0.30;;;19.00;96.20;;;;;;5116777;27;20146;-78
2023/08/30 04:45:06;;;;;;;3.33;0.55;;;19.00;96.20;;;;;;5135545;27;20110;-77
2023/08/30 04:47:32;;;;;;;0.85;0.20;;;19.00;96.20;;;;;;5135698;27;20031;-77
2023/08/30 04:49:59;;;;;;;1.05;0.40;;;19.00;96.30;;;;;;5135593;27;20436;-78
2023/08/30 04:52:25;;;;;;;1.17;0.30;;;19.00;96.30;;;;;;5135220;27;20487;-78
2023/08/30 04:54:51;;;;;;;2.97;0.47;;;19.00;96.20;;;;;;5135501;27;20106;-78
2023/08/30 04:57:17;;;;;;;1.52;0.50;;;19.00;96.20;;;;;;5135485;27;20161;-78
2023/08/30 04:59:44;;;;;;;1.17;0.35;;;19.00;96.20;;;;;;5135115;27;20031;-78
2023/08/30 05:02:10;;;;;;;6.25;0.57;;;19.00;96.10;;;;;;5099710;28;20038;-79
2023/08/30 05:04:39;;;;;;;2.30;0.55;;;19.00;96.10;;;;;;5114646;28;20028;-77
2023/08/30 05:07:05;;;;;;;8.88;1.00;;;19.00;96.00;;;;;;5099293;28;20032;-78
2023/08/30 05:09:32;;;;;;;2.15;0.60;;;19.00;96.00;;;;;;5114583;28;20034;-78
2023/08/30 05:11:58;;;;;;;4.82;0.50;;;18.90;95.90;;;;;;5114436;28;20085;-78
2023/08/30 05:14:23;;;;;;;3.83;0.65;;;18.90;95.90;;;;;;5114390;28;20040;-78
2023/08/30 05:16:50;;;;;;;5.57;1.15;;;18.90;95.90;;;;;;5114383;28;20055;-78
2023/08/30 05:19:18;;;;;;;4.63;0.73;;;18.90;96.00;;;;;;5114416;28;20126;-78
2023/08/30 05:21:45;;;;;;;4.22;0.50;;;18.90;96.10;;;;;;5114294;28;20085;-78
2023/08/30 05:24:11;;;;;;;5.00;0.75;;;18.80;96.20;;;;;;5113943;28;20044;-77
2023/08/30 05:26:37;;;;;;;2.95;0.43;;;18.80;96.20;;;;;;5113416;28;20445;-78
2023/08/30 05:29:05;;;;;;;3.40;0.50;;;18.80;96.10;;;;;;5114145;28;20059;-76
2023/08/30 05:31:31;;;;;;;4.22;0.63;;;18.80;96.20;;;;;;5114379;28;20111;-75
2023/08/30 05:33:57;;;;;;;1.52;0.50;;;18.70;96.30;;;;;;5114288;28;20108;-75
2023/08/30 05:36:23;;;;;;;1.38;0.47;;;18.70;96.40;;;;;;5114202;28;20032;-75
2023/08/30 05:38:48;;;;;;;4.28;0.60;;;18.70;96.50;;;;;;5114011;28;20360;-75
2023/08/30 05:41:14;;;;;;;1.85;0.47;;;18.80;96.60;;;;;;5113469;28;20046;-75
2023/08/30 05:43:40;;;;;;;1.63;0.40;;;18.70;96.70;;;;;;5112989;28;20112;-75
2023/08/30 05:46:12;;;;;;;6.00;0.60;;;18.80;96.80;;;;;;5113769;27;20465;-75
2023/08/30 05:48:37;;;;;;;5.00;0.63;;;18.80;96.80;;;;;;5113724;28;20059;-75
2023/08/30 05:51:03;;;;;;;7.82;0.50;;;18.80;96.80;;;;;;5113838;28;20130;-75
2023/08/30 05:53:29;;;;;;;3.95;0.47;;;18.80;96.80;;;;;;5113645;28;20073;-75
2023/08/30 05:55:55;;;;;;;3.97;0.77;;;18.90;96.80;;;;;;5113221;28;20027;-74
2023/08/30 05:58:21;;;;;;;4.90;0.43;;;18.80;96.90;;;;;;5113321;28;20035;-77
2023/08/30 06:00:46;;;;;;;5.00;0.57;;;18.90;96.90;;;;;;5112461;28;20039;-74
2023/08/30 06:03:12;;;;;;;3.72;0.88;;;18.90;96.90;;;;;;5113426;28;20055;-74
2023/08/30 06:05:38;;;;;;;4.50;0.50;;;18.90;96.90;;;;;;5112970;28;20070;-73
2023/08/30 06:08:04;;;;;;;5.88;0.50;;;18.90;96.90;;;;;;5109500;28;20035;-74
2023/08/30 06:10:30;;;;;;;9.35;0.63;;;18.90;97.00;;;;;;5110465;28;20080;-75
2023/08/30 06:12:55;;;;;;;1.40;0.50;;;18.90;97.10;;;;;;5109522;28;20097;-72
2023/08/30 06:15:21;;;;;;;4.45;0.57;;;18.90;97.10;;;;;;5110777;28;20036;-71
2023/08/30 06:17:47;;;;;;;1.77;0.50;;;18.90;97.20;;;;;;5110406;28;20084;-71
2023/08/30 06:20:13;;;;;;;2.85;0.82;;;18.90;97.20;;;;;;5109897;28;20133;-72
2023/08/30 06:22:41;;;;;;;1.05;0.55;;;18.90;97.20;;;;;;5109904;28;20035;-72
2023/08/30 06:25:07;;;;;;;2.03;0.70;;;18.90;97.10;;;;;;5118588;27;20039;-71
2023/08/30 06:27:33;;;;;;;2.72;0.50;;;18.90;97.20;;;;;;5129965;27;20035;-71
2023/08/30 06:29:58;;;;;;;6.68;0.80;;;18.90;97.30;;;;;;5132888;27;20084;-72
2023/08/30 06:32:25;;;;;;;4.80;0.63;;;18.90;97.40;;;;;;5133217;27;20027;-73
2023/08/30 06:34:50;;;;;;;4.20;0.85;;;18.90;97.70;;;;;;5133209;27;20031;-72
2023/08/30 06:37:17;;;;;;;4.50;0.60;;;18.90;97.70;;;;;;5132489;27;20083;-72
2023/08/30 06:39:42;;;;;;;2.00;0.70;;;18.90;97.80;;;;;;5133382;28;20035;-72
2023/08/30 06:42:08;;;;;;;5.85;0.68;;;19.00;97.80;;;;;;5132934;28;20039;-72
2023/08/30 06:44:34;;;;;;;1.77;0.70;;;19.00;97.80;;;;;;5133965;28;20041;-73
2023/08/30 06:47:00;;;;;;;4.55;0.80;;;18.90;97.70;;;;;;5133259;28;20096;-72
2023/08/30 06:49:25;;;;;;;6.93;0.82;;;18.90;97.70;;;;;;5133606;28;20089;-75
2023/08/30 06:51:51;;;;;;;1.58;0.60;;;18.90;97.80;;;;;;5132558;28;20680;-72
2023/08/30 06:54:17;;;;;;;12.32;1.33;;;18.90;97.80;;;;;;5134162;28;20031;-73
2023/08/30 06:57:00;;;;;;;7.88;0.85;;;18.90;97.90;;;;;;5132024;28;20204;-77
2023/08/30 06:59:28;;;;;;;4.07;0.70;;;18.90;97.90;;;;;;5131898;28;20433;-75
2023/08/30 07:01:53;;;;;;;2.80;0.70;;;18.90;98.00;;;;;;5132111;28;20115;-74
2023/08/30 07:04:19;;;;;;;5.30;0.93;;;19.00;98.00;;;;;;5132175;28;20118;-74
2023/08/30 07:06:45;;;;;;;6.13;0.70;;;18.90;98.00;;;;;;5132936;28;20076;-75
2023/08/30 07:09:11;;;;;;;3.35;0.60;;;19.00;98.00;;;;;;5133005;28;20031;-76
2023/08/30 07:11:38;;;;;;;3.05;0.75;;;19.00;98.10;;;;;;5133580;28;20023;-74
2023/08/30 07:14:04;;;;;;;2.95;0.88;;;19.00;98.10;;;;;;5133824;28;20038;-74
2023/08/30 07:16:31;;;;;;;4.63;0.63;;;19.00;98.00;;;;;;5133697;28;20031;-73
2023/08/30 07:18:58;;;;;;;2.53;0.50;;;19.00;98.00;;;;;;5133544;28;20031;-73
2023/08/30 07:21:24;;;;;;;4.47;0.70;;;18.90;97.90;;;;;;5133676;28;20054;-73
2023/08/30 07:23:49;;;;;;;1.23;0.40;;;19.00;97.80;;;;;;5133407;28;20047;-73
2023/08/30 07:26:15;;;;;;;1.85;0.32;;;18.90;97.70;;;;;;5133334;28;20028;-73
2023/08/30 07:28:41;;;;;;;3.28;0.40;;;18.90;97.40;;;;;;5133450;28;20046;-73
2023/08/30 07:31:07;;;;;;;2.03;0.40;;;18.80;97.10;;;;;;5133288;28;20092;-73
2023/08/30 07:33:33;;;;;;;2.22;0.55;;;18.90;97.10;;;;;;5133662;28;20118;-72
2023/08/30 07:35:59;;;;;;;2.88;0.32;;;18.80;97.00;;;;;;5115063;28;20062;-72
2023/08/30 07:38:24;;;;;;;0.70;0.30;;;18.80;97.00;;;;;;5133381;28;20501;-73
2023/08/30 07:40:50;;;;;;;1.88;0.40;;;18.80;97.00;;;;;;5132999;28;20119;-73
2023/08/30 07:43:16;;;;;;;3.13;0.50;;;18.80;97.00;;;;;;5132890;28;20126;-73
2023/08/30 07:45:42;;;;;;;0.43;0.20;;;18.80;97.00;;;;;;5133432;28;20394;-73
2023/08/30 07:48:07;;;;;;;4.57;0.30;;;18.70;96.90;;;;;;5133131;28;20035;-73
2023/08/30 07:50:33;;;;;;;2.78;0.32;;;18.70;96.90;;;;;;5136406;27;20080;-73
2023/08/30 07:52:59;;;;;;;2.80;0.70;;;18.70;96.90;;;;;;5136981;27;20046;-74
2023/08/30 07:55:25;;;;;;;5.35;0.45;;;18.70;97.00;;;;;;5118371;27;20066;-73
2023/08/30 07:57:51;;;;;;;1.48;0.32;;;18.70;97.30;;;;;;5137033;27;20039;-73
2023/08/30 08:00:17;;;;;;;2.13;0.30;;;18.70;97.10;;;;;;5118638;27;20027;-73
2023/08/30 08:02:42;;;;;;;0.40;0.20;;;18.70;97.00;;;;;;5136592;27;20063;-73
2023/08/30 08:05:08;;;;;;;2.35;0.43;;;18.70;96.90;;;;;;5118141;27;20033;-73
2023/08/30 08:07:38;;;;;;;2.40;0.20;;;18.70;96.60;;;;;;5136492;27;20031;-73
2023/08/30 08:10:05;;;;;;;1.00;0.20;;;18.70;96.40;;;;;;5118330;27;20398;-73
2023/08/30 08:12:32;;;;;;;3.53;0.30;;;18.70;96.40;;;;;;5136693;27;20036;-74
2023/08/30 08:14:58;;;;;;;0.80;0.40;;;18.70;96.60;;;;;;5136685;27;20106;-73
2023/08/30 08:17:23;;;;;;;4.60;0.50;;;18.70;96.80;;;;;;5136411;27;20092;-73
2023/08/30 08:19:50;;;;;;;7.60;0.60;;;18.70;96.90;;;;;;5136582;27;20031;-73
2023/08/30 08:22:16;;;;;;;1.67;0.55;;;18.70;97.00;;;;;;5136433;27;20038;-73
2023/08/30 08:24:43;;;;;;;3.03;0.50;;;18.70;97.10;;;;;;5136572;27;20031;-74
2023/08/30 08:27:09;;;;;;;0.85;0.40;;;18.80;97.10;;;;;;5117860;27;20035;-73
2023/08/30 08:29:35;;;;;;;1.58;0.73;;;18.80;97.00;;;;;;5136213;27;20031;-73
2023/08/30 08:32:00;;;;;;;0.93;0.40;;;18.80;96.90;;;;;;5135258;27;20080;-74
2023/08/30 08:34:26;;;;;;;1.38;0.35;;;18.80;97.00;;;;;;5136093;27;20038;-73
2023/08/30 08:36:52;;;;;;;1.20;0.40;;;18.90;97.00;;;;;;5135988;27;20031;-72
2023/08/30 08:39:18;;;;;;;0.50;0.30;;;18.90;96.90;;;;;;5135883;27;20390;-73
2023/08/30 08:41:45;;;;;;;1.95;0.25;;;18.90;97.00;;;;;;5135837;27;20027;-73
2023/08/30 08:44:13;;;;;;;0.40;0.20;;;18.90;97.10;;;;;;5135705;27;20491;-73
2023/08/30 08:46:40;;;;;;;2.33;0.40;;;18.90;96.90;;;;;;5135547;27;20057;-72
2023/08/30 08:49:16;;;;;;;0.45;0.30;;;18.90;96.70;;;;;;5135605;27;20392;-72
2023/08/30 08:51:45;;;;;;;0.30;0.30;;;18.90;96.70;;;;;;5135740;27;20035;-73
2023/08/30 08:54:12;;;;;;;1.65;0.30;;;18.90;96.50;;;;;;5135993;27;20482;-72
2023/08/30 08:56:39;;;;;;;1.10;0.32;;;18.90;96.50;;;;;;5135539;27;20032;-73
2023/08/30 08:59:07;;;;;;;0.47;0.30;;;18.90;96.50;;;;;;5135229;27;20487;-73
2023/08/30 09:01:35;;;;;;;1.23;0.30;;;18.90;96.60;;;;;;5114983;27;20479;-73
2023/08/30 09:04:08;;;;;;;0.70;0.30;;;18.90;96.70;;;;;;5114678;28;20460;-72
2023/08/30 09:06:35;;;;;;;1.45;0.55;;;18.90;96.80;;;;;;5114954;28;20391;-72
2023/08/30 09:09:06;;;;;;;4.85;0.40;;;18.90;96.70;;;;;;5114726;28;20054;-73
2023/08/30 09:11:32;;;;;;;0.30;0.30;;;18.90;96.80;;;;;;5114420;28;20041;-73
2023/08/30 09:13:58;;;;;;;3.13;0.50;;;18.90;96.80;;;;;;5114733;28;20495;-72
2023/08/30 09:16:24;;;;;;;4.35;0.40;;;18.90;96.70;;;;;;5114832;28;20024;-72
2023/08/30 09:19:01;;;;;;;2.33;0.50;;;18.90;96.70;;;;;;5114486;28;20513;-73
2023/08/30 09:21:27;;;;;;;2.75;0.45;;;18.90;96.70;;;;;;5114612;28;20408;-72
2023/08/30 09:24:04;;;;;;;0.77;0.40;;;18.90;96.70;;;;;;5114347;28;20505;-73
2023/08/30 09:26:35;;;;;;;2.20;0.65;;;18.90;96.80;;;;;;5096012;28;20402;-73
2023/08/30 09:29:08;;;;;;;0.70;0.50;;;18.90;96.80;;;;;;5114486;28;20054;-73
2023/08/30 09:31:40;;;;;;;1.25;0.40;;;18.90;96.80;;;;;;5114311;28;20035;-74
2023/08/30 09:34:06;;;;;;;3.13;0.52;;;18.90;96.90;;;;;;5114310;28;20114;-74
2023/08/30 09:36:42;;;;;;;1.05;0.50;;;19.00;96.90;;;;;;5114305;28;20479;-74
2023/08/30 09:39:12;;;;;;;0.88;0.40;;;18.90;96.80;;;;;;5113308;28;20059;-75
2023/08/30 09:41:46;;;;;;;0.68;0.30;;;19.00;96.80;;;;;;5113251;28;20031;-73
2023/08/30 09:44:21;;;;;;;3.28;0.50;;;19.00;96.70;;;;;;5113544;28;20043;-73
2023/08/30 09:46:55;;;;;;;0.63;0.40;;;19.00;96.80;;;;;;5113225;28;20035;-73
2023/08/30 09:49:25;;;;;;;1.35;0.40;;;19.00;96.90;;;;;;5113980;28;20487;-73
2023/08/30 09:51:52;;;;;;;5.47;0.45;;;19.00;96.90;;;;;;5113865;28;20028;-74
2023/08/30 09:54:23;;;;;;;1.90;0.50;;;19.10;97.10;;;;;;5114020;28;20107;-73
2023/08/30 09:56:52;;;;;;;1.30;0.33;;;19.10;97.10;;;;;;5113962;28;20036;-73
2023/08/30 09:59:18;;;;;;;0.73;0.30;;;19.10;97.00;;;;;;5113373;28;20032;-73
2023/08/30 10:01:48;;;;;;;0.77;0.40;;;19.10;96.90;;;;;;5111781;28;20548;-74
2023/08/30 10:04:14;;;;;;;0.32;0.30;;;19.10;96.70;;;;;;5111825;28;20047;-74
2023/08/30 10:06:40;;;;;;;1.95;0.30;;;19.10;96.60;;;;;;5093641;28;20484;-73
2023/08/30 10:09:08;;;;;;;1.42;0.50;;;19.20;96.70;;;;;;5113730;28;20039;-73
2023/08/30 10:11:35;;;;;;;2.75;0.43;;;19.20;96.80;;;;;;5113382;28;20036;-73
2023/08/30 10:14:04;;;;;;;0.70;0.30;;;19.20;96.70;;;;;;5112766;28;20027;-74
2023/08/30 10:16:37;;;;;;;2.30;0.30;;;19.20;96.40;;;;;;5113670;28;20569;-75
2023/08/30 10:19:09;;;;;;;2.42;0.40;;;19.20;96.30;;;;;;5113641;28;20039;-74
2023/08/30 10:21:36;;;;;;;1.08;0.50;;;19.30;96.30;;;;;;5112752;28;20112;-75
2023/08/30 10:24:03;;;;;;;1.58;0.60;;;19.30;96.20;;;;;;5113120;28;20043;-74
2023/08/30 10:26:32;;;;;;;0.60;0.60;;;19.30;96.20;;;;;;5094620;28;20059;-75
2023/08/30 10:28:59;;;;;;;1.10;0.50;;;19.30;96.20;;;;;;5113363;28;20046;-76
2023/08/30 10:31:26;;;;;;;0.98;0.52;;;19.40;96.20;;;;;;5113535;28;20035;-76
2023/08/30 10:33:56;;;;;;;0.80;0.40;;;19.40;96.10;;;;;;5113400;28;20172;-70
2023/08/30 10:36:26;;;;;;;0.50;0.40;;;19.40;96.20;;;;;;5113063;28;20020;-76
2023/08/30 10:38:55;;;;;;;1.23;0.40;;;19.40;96.10;;;;;;5112788;28;20476;-76
2023/08/30 10:41:26;;;;;;;0.70;0.40;;;19.40;95.90;;;;;;5112893;28;20092;-75
2023/08/30 10:43:55;;;;;;;0.90;0.40;;;19.40;95.70;;;;;;5113110;28;20043;-76
2023/08/30 10:46:34;;;;;;;0.32;0.20;;;19.40;95.60;;;;;;5113199;28;20038;-76
2023/08/30 10:49:14;;;;;;;1.55;0.52;;;19.40;95.50;;;;;;5112368;28;20046;-77
2023/08/30 10:51:41;;;;;;;0.82;0.30;;;19.40;95.70;;;;;;5112987;28;20560;-76
2023/08/30 10:54:17;;;;;;;1.35;0.40;;;19.50;95.90;;;;;;5112982;28;20161;-76
2023/08/30 10:56:51;;;;;;;1.65;0.60;;;19.50;95.90;;;;;;5113068;28;20032;-77
2023/08/30 10:59:22;;;;;;;2.95;0.22;;;19.50;95.90;;;;;;5113251;28;20035;-77
2023/08/30 11:01:49;;;;;;;0.93;0.45;;;19.50;96.00;;;;;;5112781;28;20035;-76
2023/08/30 11:04:16;;;;;;;0.65;0.30;;;19.50;96.00;;;;;;5112735;28;20038;-74
2023/08/30 11:06:51;;;;;;;0.95;0.32;;;19.50;95.80;;;;;;5094745;28;20039;-74
2023/08/30 11:09:20;;;;;;;1.20;0.40;;;19.50;95.60;;;;;;5113082;28;20036;-73
2023/08/30 11:11:50;;;;;;;0.40;0.30;;;19.50;95.60;;;;;;5113096;28;20023;-74
2023/08/30 11:14:17;;;;;;;5.97;0.40;;;19.50;95.60;;;;;;5113103;28;20507;-74
2023/08/30 11:16:43;;;;;;;1.10;0.30;;;19.50;95.60;;;;;;5112869;28;20030;-73
2023/08/30 11:19:11;;;;;;;0.73;0.30;;;19.50;95.50;;;;;;5094217;28;20040;-74
2023/08/30 11:21:38;;;;;;;3.92;0.35;;;19.50;95.50;;;;;;5112874;28;20059;-73
2023/08/30 11:24:05;;;;;;;1.00;0.20;;;19.60;95.60;;;;;;5113515;28;20047;-73
2023/08/30 11:26:31;;;;;;;1.00;0.30;;;19.60;95.50;;;;;;5116427;28;20028;-73
2023/08/30 11:28:57;;;;;;;0.82;0.30;;;19.60;95.50;;;;;;5114609;28;20399;-74
2023/08/30 11:31:28;;;;;;;0.55;0.20;;;19.60;95.40;;;;;;5113741;28;20032;-74
2023/08/30 11:33:58;;;;;;;0.17;0.17;;;19.70;95.50;;;;;;5113434;28;20044;-74
2023/08/30 11:36:28;;;;;;;1.70;0.30;;;19.70;95.40;;;;;;5115400;28;20020;-74
2023/08/30 11:38:55;;;;;;;0.57;0.38;;;19.70;95.20;;;;;;5116427;28;20055;-74
2023/08/30 11:41:21;;;;;;;0.85;0.40;;;19.70;95.00;;;;;;5116571;28;20115;-74
2023/08/30 11:43:48;;;;;;;0.88;0.30;;;19.80;94.80;;;;;;5116069;28;20495;-74
2023/08/30 11:46:14;;;;;;;0.30;0.22;;;19.80;94.70;;;;;;5116202;28;20568;-74
2023/08/30 11:48:41;;;;;;;0.73;0.30;;;19.80;94.90;;;;;;5116313;28;20575;-74
2023/08/30 11:51:07;;;;;;;2.35;0.30;;;19.90;95.00;;;;;;5115627;28;20128;-74
2023/08/30 11:53:34;;;;;;;0.43;0.20;;;19.90;95.00;;;;;;5097569;28;20499;-73
2023/08/30 11:56:00;;;;;;;0.98;0.40;;;19.90;94.80;;;;;;5135433;27;20035;-73
2023/08/30 11:58:25;;;;;;;1.05;0.30;;;20.00;94.80;;;;;;5136138;27;20483;-73
2023/08/30 12:00:53;;;;;;;0.68;0.38;;;20.00;94.50;;;;;;5136180;27;20019;-73
2023/08/30 12:03:20;;;;;;;1.75;0.30;;;20.00;94.40;;;;;;5135913;27;20157;-73
2023/08/30 12:05:50;;;;;;;0.43;0.30;;;20.00;94.30;;;;;;5136160;27;20031;-72
2023/08/30 12:08:27;;;;;;;1.60;0.28;;;20.00;94.20;;;;;;5136079;27;20031;-72
2023/08/30 12:10:54;;;;;;;0.45;0.20;;;20.00;93.60;;;;;;5135920;27;20066;-72
2023/08/30 12:13:28;;;;;;;0.28;0.28;;;20.10;93.30;;;;;;5135950;27;20035;-73
2023/08/30 12:16:02;;;;;;;0.73;0.22;;;20.10;93.20;;;;;;5135869;27;20157;-72
2023/08/30 12:18:32;;;;;;;0.55;0.20;;;20.10;93.10;;;;;;5117334;27;20038;-72
2023/08/30 12:21:03;;;;;;;0.52;0.20;;;20.10;93.10;;;;;;5117293;27;20035;-73
2023/08/30 12:23:30;;;;;;;0.35;0.20;;;20.00;92.80;;;;;;5133699;27;20066;-74
2023/08/30 12:26:03;;;;;;;2.83;0.20;;;20.00;92.30;;;;;;5114870;27;20126;-76
2023/08/30 12:28:31;;;;;;;2.03;0.10;;;20.00;92.20;;;;;;5116690;27;20118;-75
2023/08/30 12:30:57;;;;;;;1.60;0.13;;;20.00;92.20;;;;;;5136209;27;20398;-75
2023/08/30 12:33:28;;;;;;;0.40;0.20;;;20.00;92.40;;;;;;5135649;27;20468;-74
2023/08/30 12:35:54;;;;;;;0.52;0.20;;;20.00;92.70;;;;;;5135082;27;20061;-75
2023/08/30 12:38:21;;;;;;;0.47;0.30;;;20.00;93.30;;;;;;5135916;27;20031;-75
2023/08/30 12:40:48;;;;;;;0.52;0.25;;;20.00;93.50;;;;;;5135651;27;20054;-75
2023/08/30 12:43:15;;;;;;;1.52;0.30;;;20.00;93.80;;;;;;5135422;27;20399;-74
2023/08/30 12:45:41;;;;;;;2.05;0.28;;;20.10;93.80;;;;;;5135729;27;20027;-74